Capt. Tracy L. Cheramie — WDG2169 — position and weather

sailwx.info

Track history (hours):
 
Tides and Currents Weather Stations Pressure Air Temp Water Temp Dewpoint Dewpoint Depression Visibility Wind Speed Wind Dir Waves Ship Positions

Capt. Tracy L. Cheramie

Owner: Florida Marine, LLC, Mandeville, LA. More information available from US FCC via Universal Licensing System and Coast Guard Vessel Documentation Center.

Last reported at 2018-Feb-12 01:26 UTC. Time now 2018-Feb-20 02:04 UTC.
Position N 30°24' W 086°54'.
Warning: this ship's position is 8 days out of date.

Length 27 m; draft 3 m.

Type: Other ship. MMSI: 367512870.

Date/timePositionNaut miles runAvg speedWind from/ knotsBaromVisibWave heightAir tempDewpointWater temp
2018-Feb-12 01:26N 30°24' W 086°54'3 7.7
2018-Feb-12 01:00N 30°24' W 086°50'4 7.7
2018-Feb-12 00:30N 30°24' W 086°46'10 7.5
2018-Feb-11 23:07N 30°24' W 086°34'1 3.7
2018-Feb-11 22:54N 30°25' W 086°33'0 0.5
2018-Feb-11 22:28N 30°24' W 086°33'0 0.1
2018-Feb-11 21:59N 30°24' W 086°33'0 0.2
2018-Feb-11 21:30N 30°25' W 086°33'0 0.3
2018-Feb-11 21:00N 30°25' W 086°33'0 0.3
2018-Feb-11 20:30N 30°24' W 086°33'0 0.2
2018-Feb-11 20:00N 30°25' W 086°33'0 0.5
2018-Feb-11 19:22N 30°25' W 086°33'0 0.5
2018-Feb-11 19:00N 30°25' W 086°33'0 0.5
2018-Feb-11 18:30N 30°25' W 086°33'0 0.2
2018-Feb-11 18:00N 30°25' W 086°33'0 0.7
2018-Feb-11 17:27N 30°24' W 086°33'3 5.7
2018-Feb-11 17:00N 30°25' W 086°30'4 8.2
2018-Feb-11 16:30N 30°26' W 086°26'4 8.3
2018-Feb-11 16:00N 30°26' W 086°21'5 0.1
2018-Feb-10 00:10N 30°27' W 086°16'1 7.7
2018-Feb-09 23:59N 30°27' W 086°17'4 7.6
2018-Feb-09 23:30N 30°26' W 086°21'4 7.8
2018-Feb-09 23:00N 30°26' W 086°26'2 7.8
2018-Feb-09 22:46N 30°26' W 086°28'18 6.6
2018-Feb-09 20:01N 30°24' W 086°49'  
2018-Feb-03 13:22N 30°24' W 086°54'3 8.0
2018-Feb-03 13:00N 30°24' W 086°51'4 7.9
2018-Feb-03 12:31N 30°24' W 086°46'12 5.6
2018-Feb-03 10:22N 30°25' W 086°32'3 8.5
2018-Feb-03 10:00N 30°26' W 086°29'2 3.1
2018-Feb-03 09:31N 30°27' W 086°27'0 0.4
2018-Feb-03 09:00N 30°27' W 086°28'0 0.1
2018-Feb-03 08:30N 30°27' W 086°28'0 0.5
2018-Feb-03 08:01N 30°27' W 086°28'1 0.3
2018-Feb-03 06:30N 30°27' W 086°28'0 0.1
2018-Feb-03 06:01N 30°27' W 086°27'0 0.2
2018-Feb-03 05:28N 30°27' W 086°27'0 0.2
2018-Feb-03 05:01N 30°27' W 086°27'0 0.3
2018-Feb-03 04:00N 30°26' W 086°27'0 0.5
2018-Feb-03 03:30N 30°26' W 086°27'  
Track history (hours):
 
Tides and Currents Weather Stations Pressure Air Temp Water Temp Dewpoint Dewpoint Depression Visibility Wind Speed Wind Dir Waves Ship Positions

Capt. Tracy L. Cheramie

Owner: Florida Marine, LLC, Mandeville, LA. More information available from US FCC via Universal Licensing System and Coast Guard Vessel Documentation Center.

Last reported at 2018-Feb-12 01:26 UTC. Time now 2018-Feb-20 02:04 UTC.
Position N 30°24' W 086°54'.
Warning: this ship's position is 8 days out of date.

Length 27 m; draft 3 m.

Type: Other ship. MMSI: 367512870.

Date/timePositionNaut miles runAvg speedWind from/ knotsBaromVisibWave heightAir tempDewpointWater temp
2018-Feb-12 01:26N 30°24' W 086°54'3 7.7
2018-Feb-12 01:00N 30°24' W 086°50'4 7.7
2018-Feb-12 00:30N 30°24' W 086°46'10 7.5
2018-Feb-11 23:07N 30°24' W 086°34'1 3.7
2018-Feb-11 22:54N 30°25' W 086°33'0 0.5
2018-Feb-11 22:28N 30°24' W 086°33'0 0.1
2018-Feb-11 21:59N 30°24' W 086°33'0 0.2
2018-Feb-11 21:30N 30°25' W 086°33'0 0.3
2018-Feb-11 21:00N 30°25' W 086°33'0 0.3
2018-Feb-11 20:30N 30°24' W 086°33'0 0.2
2018-Feb-11 20:00N 30°25' W 086°33'0 0.5
2018-Feb-11 19:22N 30°25' W 086°33'0 0.5
2018-Feb-11 19:00N 30°25' W 086°33'0 0.5
2018-Feb-11 18:30N 30°25' W 086°33'0 0.2
2018-Feb-11 18:00N 30°25' W 086°33'0 0.7
2018-Feb-11 17:27N 30°24' W 086°33'3 5.7
2018-Feb-11 17:00N 30°25' W 086°30'4 8.2
2018-Feb-11 16:30N 30°26' W 086°26'4 8.3
2018-Feb-11 16:00N 30°26' W 086°21'5 0.1
2018-Feb-10 00:10N 30°27' W 086°16'1 7.7
2018-Feb-09 23:59N 30°27' W 086°17'4 7.6
2018-Feb-09 23:30N 30°26' W 086°21'4 7.8
2018-Feb-09 23:00N 30°26' W 086°26'2 7.8
2018-Feb-09 22:46N 30°26' W 086°28'18 6.6
2018-Feb-09 20:01N 30°24' W 086°49'  
2018-Feb-03 13:22N 30°24' W 086°54'3 8.0
2018-Feb-03 13:00N 30°24' W 086°51'4 7.9
2018-Feb-03 12:31N 30°24' W 086°46'12 5.6
2018-Feb-03 10:22N 30°25' W 086°32'3 8.5
2018-Feb-03 10:00N 30°26' W 086°29'2 3.1
2018-Feb-03 09:31N 30°27' W 086°27'0 0.4
2018-Feb-03 09:00N 30°27' W 086°28'0 0.1
2018-Feb-03 08:30N 30°27' W 086°28'0 0.5
2018-Feb-03 08:01N 30°27' W 086°28'1 0.3
2018-Feb-03 06:30N 30°27' W 086°28'0 0.1
2018-Feb-03 06:01N 30°27' W 086°27'0 0.2
2018-Feb-03 05:28N 30°27' W 086°27'0 0.2
2018-Feb-03 05:01N 30°27' W 086°27'0 0.3
2018-Feb-03 04:00N 30°26' W 086°27'0 0.5
2018-Feb-03 03:30N 30°26' W 086°27'  

Dump ship's entire track history